首页
METAR-TAF:

METAR-TAF

机场 :

Kbely

布拉格, 捷克共和国

纬度: 50-07-17N, 经度: 14-32-37E, 海拔: 286米

当前天气观测

该预报发布于54分钟前的04:00 UTC
风速12节,风向南转西南
温度 4°C
湿度 81%
气压 994 hPa
能见度10公里或以上
多云层高于3100英尺
多云层高于4900英尺

METAR: LKKB 260400Z 21012KT 9999 BKN031 BKN049 04/01 Q0994 NOSIG

时间: 05:54 (04:54 UTC)

预报

该预报发布于5小时和54分钟前的23:00 UTC
预报有效从26日的 00点(UTC)到 27日的 00点(UTC)
风速12节,风向西南
能见度10公里或以上
多云层高于4000英尺
短暂存在
从 26日的 00点(UTC)到 26日的 08点(UTC)
风速14节,风向西转西南,有时为24节阵风
几率 30% :
短暂存在
从 26日的 06点(UTC)到 26日的 11点(UTC)
多云层高于2000英尺
短暂存在
从 26日的 08点(UTC)到 26日的 19点(UTC)
风速15节,风向西,有时为30节阵风
短暂存在
从 26日的 17点(UTC)到 27日的 00点(UTC)
能見度: 7000
多云层高于2000英尺
阵雨
成为
从 26日的 19点(UTC)到 26日的 21点(UTC)
风速10节,风向西

TAF: LKKB 252300Z 2600/2700 22012KT 9999 BKN040 TEMPO 2600/2608 24014G24KT PROB30 TEMPO 2606/2611 RA BKN020 TEMPO 2608/2619 26015G30KT TEMPO 2617/2700 7000 SHRA BKN020 BECMG 2619/2621 27010KT

超过4000个机场的气象观测和天气预报(METAR&TAF报告)。

可查询的气象台以黄色和红色小点在地图上表示。

将鼠标移到小点上方,可查看气象台名称。

然后点击查看天气观测和预报。

如需切换地图:点击带黑十字的绿色按钮放大地图;点击带横线的绿色按钮缩小地图;或者点击绿色箭头查看邻近地区的地图。


METAR-TAF: